Time;durP1;ratioP1;P1;durP2;ratioP2;P2;SDS_P1;SDS_P2;PMS_P1;PMS_P2;Temp;Humidity;BMP_temperature;BMP_pressure;BME280_temperature;BME280_humidity;BME280_pressure;Samples;Min_cycle;Max_cycle;Signal;HPM_P1;HPM_P2
2022/08/22 00:08:38;;;;;;;;;;;23.60;53.00;;;;;;21143449;28;20510;-75
2022/08/22 00:19:23;;;;;;;1.23;0.68;;;23.60;52.90;;;;;;21124837;28;19915;-76
2022/08/22 00:29:26;;;;;;;1.80;0.90;;;23.60;52.90;;;;;;21152006;28;20059;-76
2022/08/22 00:39:45;;;;;;;1.25;0.77;;;23.50;53.00;;;;;;21092225;28;20047;-76
2022/08/22 00:50:02;;;;;;;1.90;1.00;;;23.50;52.90;;;;;;21123372;28;20116;-76
2022/08/22 01:00:15;;;;;;;1.48;0.80;;;23.50;52.80;;;;;;21139227;28;20035;-75
2022/08/22 01:10:45;;;;;;;1.70;1.10;;;23.50;52.80;;;;;;21155613;28;20500;-77
2022/08/22 01:21:04;;;;;;;1.58;0.90;;;23.40;52.70;;;;;;21387247;22;20205;-76
2022/08/22 01:31:34;;;;;;;1.33;0.80;;;23.40;52.70;;;;;;20904988;28;20041;-75
2022/08/22 01:41:44;;;;;;;0.77;0.63;;;23.40;52.70;;;;;;20871913;28;20049;-76
2022/08/22 01:52:11;;;;;;;1.05;0.63;;;23.40;52.60;;;;;;20870657;28;20036;-75
2022/08/22 02:02:31;;;;;;;1.88;1.05;;;23.40;52.60;;;;;;20853119;28;20045;-76
2022/08/22 02:12:44;;;;;;;1.35;0.80;;;23.30;52.50;;;;;;20870343;28;20328;-77
2022/08/22 02:23:17;;;;;;;1.15;1.02;;;23.30;52.50;;;;;;20853635;28;20036;-75
2022/08/22 02:33:46;;;;;;;1.58;1.10;;;23.30;52.40;;;;;;20869707;28;20364;-75
2022/08/22 02:43:53;;;;;;;0.80;0.73;;;23.30;52.40;;;;;;20910396;28;20390;-76
2022/08/22 02:54:19;;;;;;;1.45;0.90;;;23.30;52.30;;;;;;20918329;28;20455;-76
2022/08/22 03:04:25;;;;;;;1.38;0.88;;;23.20;52.20;;;;;;20969441;28;20059;-75
2022/08/22 03:14:37;;;;;;;2.60;0.98;;;23.20;52.20;;;;;;20962691;28;20071;-75
2022/08/22 03:24:54;;;;;;;2.03;0.95;;;23.20;52.10;;;;;;20946628;28;20036;-76
2022/08/22 03:35:07;;;;;;;2.70;1.35;;;23.20;52.10;;;;;;20977672;28;20398;-76
2022/08/22 03:45:41;;;;;;;2.53;1.20;;;23.10;51.90;;;;;;20928490;28;20028;-76
2022/08/22 03:56:18;;;;;;;1.05;0.90;;;23.10;51.80;;;;;;20905145;28;20084;-75
2022/08/22 04:06:51;;;;;;;1.55;0.93;;;23.10;51.80;;;;;;20937294;28;20028;-76
2022/08/22 04:17:26;;;;;;;1.08;0.90;;;23.00;51.60;;;;;;20957340;28;20052;-75
2022/08/22 04:27:32;;;;;;;0.75;0.65;;;23.00;51.50;;;;;;20973279;28;20115;-75
2022/08/22 04:37:49;;;;;;;2.55;1.10;;;23.00;51.40;;;;;;20972431;28;20040;-75
2022/08/22 04:47:59;;;;;;;1.48;1.02;;;22.90;51.30;;;;;;20924262;28;20042;-76
2022/08/22 04:58:15;;;;;;;2.40;1.23;;;22.90;51.30;;;;;;20956286;28;20052;-76
2022/08/22 05:08:20;;;;;;;1.05;0.75;;;22.90;51.20;;;;;;20939007;28;20394;-76
2022/08/22 05:18:21;;;;;;;1.58;0.90;;;22.90;51.20;;;;;;20938050;28;20044;-76
2022/08/22 05:28:30;;;;;;;3.45;0.90;;;22.90;51.20;;;;;;20937516;28;20620;-76
2022/08/22 05:38:31;;;;;;;1.63;1.13;;;22.90;51.30;;;;;;20953342;28;20081;-76
2022/08/22 05:48:54;;;;;;;1.25;0.93;;;22.80;51.30;;;;;;20920901;28;20109;-76
2022/08/22 05:58:58;;;;;;;1.80;0.93;;;22.80;51.40;;;;;;20921140;28;20461;-76
2022/08/22 06:09:31;;;;;;;1.50;1.08;;;22.80;51.60;;;;;;20920679;28;20029;-76
2022/08/22 06:19:32;;;;;;;3.30;1.10;;;22.80;51.70;;;;;;20996705;28;20121;-77
2022/08/22 06:29:44;;;;;;;1.42;1.02;;;22.80;51.90;;;;;;20934236;28;20089;-77
2022/08/22 06:39:47;;;;;;;2.50;1.20;;;22.80;52.00;;;;;;20949263;28;20495;-76
2022/08/22 06:49:49;;;;;;;1.10;0.80;;;22.80;52.20;;;;;;20949008;28;20376;-79
2022/08/22 06:59:50;;;;;;;3.50;1.25;;;22.80;52.30;;;;;;20950561;28;20036;-78
2022/08/22 07:09:54;;;;;;;2.20;1.20;;;22.80;52.40;;;;;;20949293;28;20398;-77
2022/08/22 07:20:15;;;;;;;1.40;0.95;;;22.80;52.60;;;;;;20952799;28;20298;-80
2022/08/22 07:30:17;;;;;;;1.27;0.73;;;22.90;52.80;;;;;;20966330;28;20367;-75
2022/08/22 07:40:31;;;;;;;2.10;1.30;;;22.90;52.80;;;;;;20944601;28;20040;-74
2022/08/22 07:50:42;;;;;;;3.77;0.97;;;22.90;52.90;;;;;;20945498;28;20066;-84
2022/08/22 08:00:46;;;;;;;4.18;1.23;;;22.90;53.10;;;;;;20891314;28;20032;-81
2022/08/22 08:10:46;;;;;;;2.08;1.08;;;22.90;53.30;;;;;;20899131;28;20391;-77
2022/08/22 08:20:52;;;;;;;1.40;1.13;;;22.90;53.40;;;;;;20873945;28;20051;-76
2022/08/22 08:30:54;;;;;;;1.50;1.00;;;23.00;53.60;;;;;;20842057;28;20043;-83
2022/08/22 08:41:19;;;;;;;1.95;0.88;;;23.00;53.50;;;;;;20856071;28;20073;-77
2022/08/22 08:51:42;;;;;;;1.70;0.77;;;23.00;53.50;;;;;;20869283;28;20057;-76
2022/08/22 09:02:28;;;;;;;1.58;0.90;;;23.00;53.60;;;;;;20838869;28;20125;-77
2022/08/22 09:12:32;;;;;;;1.90;1.13;;;23.00;53.60;;;;;;20859523;28;20391;-77
2022/08/22 09:23:08;;;;;;;1.20;0.90;;;23.10;53.60;;;;;;20870049;28;20056;-77
2022/08/22 09:33:12;;;;;;;1.93;1.20;;;23.00;53.50;;;;;;20855216;28;20033;-76
2022/08/22 09:43:16;;;;;;;2.83;0.88;;;23.10;53.50;;;;;;20852391;28;20044;-77
2022/08/22 09:54:01;;;;;;;1.67;0.80;;;23.10;53.50;;;;;;20862136;28;20101;-77
2022/08/22 10:04:23;;;;;;;1.23;0.80;;;23.10;53.50;;;;;;20881569;28;20529;-77
2022/08/22 10:14:49;;;;;;;2.25;0.80;;;23.10;53.50;;;;;;20878780;28;20118;-77
2022/08/22 10:25:11;;;;;;;2.05;0.60;;;23.20;53.50;;;;;;20864901;28;20114;-77
2022/08/22 10:35:24;;;;;;;0.68;0.68;;;23.20;53.40;;;;;;20850060;28;20174;-77
2022/08/22 10:45:41;;;;;;;1.90;0.80;;;23.10;53.20;;;;;;20900280;28;20076;-76
2022/08/22 10:55:42;;;;;;;0.73;0.70;;;23.20;53.20;;;;;;20849016;28;20394;-77
2022/08/22 11:05:44;;;;;;;0.88;0.55;;;23.10;53.00;;;;;;20879290;28;20029;-77
2022/08/22 11:15:58;;;;;;;1.65;0.60;;;23.20;53.00;;;;;;20881353;28;20043;-77
2022/08/22 11:26:13;;;;;;;1.80;0.52;;;23.20;52.80;;;;;;20846610;28;20115;-77
2022/08/22 11:36:25;;;;;;;0.55;0.40;;;23.20;52.80;;;;;;20901692;28;20044;-78
2022/08/22 11:46:32;;;;;;;0.68;0.38;;;23.20;52.70;;;;;;20891943;28;20503;-77
2022/08/22 11:56:47;;;;;;;0.40;0.38;;;23.20;52.70;;;;;;20859358;28;20037;-77
2022/08/22 12:07:00;;;;;;;0.85;0.50;;;23.20;52.60;;;;;;20859720;28;20029;-77
2022/08/22 12:17:36;;;;;;;1.15;0.60;;;23.20;52.50;;;;;;20838757;28;20103;-78
2022/08/22 12:27:56;;;;;;;;;;;23.20;52.50;;;;;;20849351;28;20407;-77
2022/08/22 12:38:02;;;;;;;1.77;0.77;;;23.30;52.50;;;;;;20889833;28;20301;-77
2022/08/22 12:48:25;;;;;;;0.75;0.50;;;23.30;52.60;;;;;;20905849;28;20383;-77
2022/08/22 12:58:37;;;;;;;2.17;0.80;;;23.30;52.70;;;;;;20889199;28;20040;-77
2022/08/22 13:08:40;;;;;;;1.73;0.70;;;23.30;52.70;;;;;;20854168;28;20037;-77
2022/08/22 13:19:02;;;;;;;1.30;0.47;;;23.30;52.70;;;;;;20853648;28;20048;-80
2022/08/22 13:29:07;;;;;;;1.10;0.50;;;23.40;52.80;;;;;;20853148;28;20044;-81
2022/08/22 13:39:23;;;;;;;2.22;0.80;;;23.40;52.70;;;;;;20869698;28;20397;-80
2022/08/22 13:49:36;;;;;;;1.17;0.50;;;23.40;52.50;;;;;;20873522;28;20034;-79
2022/08/22 13:59:42;;;;;;;1.10;0.68;;;23.50;52.30;;;;;;20855889;28;20037;-78
2022/08/22 14:09:53;;;;;;;5.50;1.10;;;23.50;52.20;;;;;;20874076;28;20086;-78
2022/08/22 14:20:00;;;;;;;4.78;0.90;;;23.60;52.00;;;;;;20867125;28;20135;-77
2022/08/22 14:30:16;;;;;;;1.77;0.73;;;23.70;51.90;;;;;;20849231;28;20033;-75
2022/08/22 14:40:29;;;;;;;;;;;23.70;51.80;;;;;;20851273;28;20407;-79
2022/08/22 14:50:36;;;;;;;2.15;0.80;;;23.80;51.70;;;;;;20883711;28;19913;-78
2022/08/22 15:00:38;;;;;;;1.30;0.80;;;23.90;51.50;;;;;;20897901;28;20052;-78
2022/08/22 15:10:39;;;;;;;5.00;0.60;;;24.00;51.40;;;;;;20864163;28;20033;-79
2022/08/22 15:20:40;;;;;;;3.47;0.95;;;24.10;51.40;;;;;;20882061;28;20148;-78
2022/08/22 15:30:44;;;;;;;6.60;1.20;;;24.20;51.40;;;;;;20862511;28;20045;-77
2022/08/22 15:40:44;;;;;;;1.90;0.70;;;24.10;51.10;;;;;;20862802;28;20044;-76
2022/08/22 15:51:00;;;;;;;2.50;0.90;;;24.20;50.90;;;;;;20855515;28;20029;-81
2022/08/22 16:01:21;;;;;;;3.20;0.90;;;24.20;50.70;;;;;;20849592;28;20045;-80
2022/08/22 16:11:32;;;;;;;1.65;1.00;;;24.10;50.80;;;;;;20862858;28;20033;-80
2022/08/22 16:21:38;;;;;;;3.45;1.15;;;24.10;51.00;;;;;;20892558;28;20036;-78
2022/08/22 16:31:42;;;;;;;4.55;1.10;;;24.10;50.90;;;;;;20885337;28;20199;-82
2022/08/22 16:41:43;;;;;;;4.13;1.10;;;24.20;50.90;;;;;;20898323;28;20402;-81
2022/08/22 16:52:21;;;;;;;2.72;1.20;;;24.20;50.80;;;;;;20869273;28;20032;-81
2022/08/22 17:02:54;;;;;;;3.08;1.02;;;24.20;50.80;;;;;;20890103;28;20510;-78
2022/08/22 17:13:13;;;;;;;3.13;1.20;;;24.30;50.80;;;;;;20869573;28;20115;-77
2022/08/22 17:23:39;;;;;;;2.25;0.90;;;24.20;50.70;;;;;;20875197;28;20052;-77
2022/08/22 17:33:59;;;;;;;2.60;0.95;;;24.20;50.70;;;;;;20857282;28;20095;-77
2022/08/22 17:44:08;;;;;;;3.15;1.15;;;24.20;50.80;;;;;;20888907;28;20029;-77
2022/08/22 17:54:16;;;;;;;2.38;1.23;;;24.10;50.80;;;;;;20873133;28;20502;-78
2022/08/22 18:04:30;;;;;;;4.20;0.80;;;24.10;51.10;;;;;;20848314;28;20402;-78
2022/08/22 18:14:38;;;;;;;1.85;0.75;;;24.10;51.00;;;;;;20863889;28;20044;-77
2022/08/22 18:24:45;;;;;;;1.73;0.95;;;24.00;51.10;;;;;;20885276;28;20045;-84
2022/08/22 18:35:13;;;;;;;3.92;1.15;;;24.00;51.20;;;;;;20883083;28;20495;-83
2022/08/22 18:45:19;;;;;;;4.78;1.48;;;24.00;51.30;;;;;;20883216;28;20037;-85
2022/08/22 18:55:47;;;;;;;1.20;0.82;;;23.90;51.30;;;;;;20854634;28;20044;-82
2022/08/22 19:06:21;;;;;;;1.60;0.90;;;23.90;51.50;;;;;;20883377;28;20517;-83
2022/08/22 19:16:30;;;;;;;2.85;1.02;;;23.90;51.60;;;;;;20888850;28;20037;-82
2022/08/22 19:26:39;;;;;;;1.05;0.90;;;23.90;51.70;;;;;;20864967;28;20025;-84
2022/08/22 19:36:40;;;;;;;1.75;1.05;;;23.90;51.80;;;;;;20849847;28;20040;-84
2022/08/22 19:46:40;;;;;;;1.58;0.90;;;23.90;52.50;;;;;;20880414;28;20124;-83
2022/08/22 19:57:10;;;;;;;1.40;1.10;;;23.90;51.90;;;;;;20874813;28;20063;-82
2022/08/22 20:07:23;;;;;;;2.50;0.90;;;23.80;51.90;;;;;;20875062;28;20037;-84
2022/08/22 20:17:23;;;;;;;1.77;0.63;;;23.90;52.00;;;;;;20893329;28;20049;-82
2022/08/22 20:27:27;;;;;;;1.42;0.75;;;23.90;52.10;;;;;;20911307;28;20450;-84
2022/08/22 20:37:30;;;;;;;1.42;0.82;;;23.80;52.10;;;;;;20891302;28;20064;-84
2022/08/22 20:47:31;;;;;;;2.30;1.00;;;23.80;52.10;;;;;;20842656;28;20040;-84
2022/08/22 20:57:32;;;;;;;2.20;0.98;;;23.80;52.20;;;;;;20861692;28;20029;-83
2022/08/22 21:07:41;;;;;;;1.80;1.10;;;23.70;52.20;;;;;;20841800;28;20091;-83
2022/08/22 21:17:41;;;;;;;1.45;0.82;;;23.80;52.20;;;;;;20850328;28;20040;-83
2022/08/22 21:27:45;;;;;;;2.72;1.02;;;23.70;52.30;;;;;;20872671;28;20037;-82
2022/08/22 21:37:46;;;;;;;2.42;0.85;;;23.80;52.30;;;;;;20861206;28;20037;-83
2022/08/22 21:47:46;;;;;;;1.55;0.80;;;23.70;52.30;;;;;;20876684;28;20536;-82
2022/08/22 21:57:47;;;;;;;1.55;0.90;;;23.70;52.30;;;;;;20891030;28;20037;-83
2022/08/22 22:07:47;;;;;;;1.10;0.70;;;23.70;52.30;;;;;;20888579;28;20174;-83
2022/08/22 22:17:48;;;;;;;2.85;0.88;;;23.70;52.30;;;;;;20904019;28;20048;-83
2022/08/22 22:27:49;;;;;;;2.15;1.02;;;23.70;52.30;;;;;;20869559;28;20033;-82
2022/08/22 22:37:49;;;;;;;1.17;0.83;;;23.70;52.30;;;;;;20853550;28;20193;-82
2022/08/22 22:47:50;;;;;;;0.68;0.50;;;23.60;52.20;;;;;;20870237;28;20033;-83
2022/08/22 22:57:52;;;;;;;2.50;0.80;;;23.70;52.30;;;;;;20885208;28;20037;-82
2022/08/22 23:07:52;;;;;;;1.85;0.85;;;23.70;52.30;;;;;;20881265;28;20296;-83
2022/08/22 23:17:53;;;;;;;1.20;0.47;;;23.60;52.20;;;;;;20882682;28;20037;-84
2022/08/22 23:27:53;;;;;;;3.07;0.70;;;23.70;52.30;;;;;;20864985;28;20467;-83
2022/08/22 23:37:54;;;;;;;2.08;0.75;;;23.60;52.30;;;;;;20863816;28;20724;-84
2022/08/22 23:47:54;;;;;;;2.88;0.90;;;23.70;52.40;;;;;;20878827;28;20527;-83
2022/08/22 23:57:55;;;;;;;1.10;0.70;;;23.60;52.40;;;;;;20880395;28;20376;-81
